Bookmark and Share
Track history (hours):
 

Marine Rouge

Last reported at 2014-Apr-23 09:33 UTC. Time now 2014-Apr-23 09:41 UTC.
Position N 35°27' E 139°39'.

Length 52 m; draft 2.8 m.

Type: Passenger vessel. MMSI: 431000518.

NotesDate/timePositionNaut miles runAvg speedWind from/ knotsBaromVisibWave heightAir tempDewpointWater temp
2014-Apr-23 09:33N 35°27' E 139°39'0 0.0
2014-Apr-23 08:33N 35°27' E 139°39'1 0.7
2014-Apr-23 07:33N 35°27' E 139°39'1 0.7
2014-Apr-23 06:33N 35°27' E 139°39'0 0.1
2014-Apr-23 05:34N 35°27' E 139°39'0 0.1
2014-Apr-23 04:33N 35°27' E 139°39'1 0.6
2014-Apr-23 03:34N 35°27' E 139°39'1 0.6
2014-Apr-23 02:33N 35°27' E 139°39'0 0.0
2014-Apr-23 01:33N 35°27' E 139°39'0 0.0
2014-Apr-23 00:33N 35°27' E 139°39'0 0.0
2014-Apr-22 12:29N 35°27' E 139°39'1 1.0
2014-Apr-22 11:33N 35°28' E 139°39'1 0.8
2014-Apr-22 10:33N 35°27' E 139°40'1 1.0
2014-Apr-22 09:33N 35°27' E 139°39'0 0.0
2014-Apr-22 08:33N 35°27' E 139°39'1 0.7
2014-Apr-22 07:33N 35°27' E 139°39'1 0.7
2014-Apr-22 06:33N 35°27' E 139°39'0 0.1
2014-Apr-22 05:34N 35°27' E 139°39'2 1.9
2014-Apr-22 04:33N 35°28' E 139°41'2 1.7
2014-Apr-22 03:33N 35°27' E 139°39'1 0.6
2014-Apr-22 02:33N 35°27' E 139°39'0 0.0
2014-Apr-22 01:33N 35°27' E 139°39'0 0.0
2014-Apr-22 00:33N 35°27' E 139°39'0 0.0
2014-Apr-21 12:30N 35°27' E 139°39'1 1.3
2014-Apr-21 11:33N 35°28' E 139°40'1 1.2
2014-Apr-21 10:33N 35°27' E 139°39'1 0.7
2014-Apr-21 09:33N 35°27' E 139°39'0 0.0
2014-Apr-21 08:33N 35°27' E 139°39'0 0.0
2014-Apr-21 07:33N 35°27' E 139°39'0 0.0
2014-Apr-21 06:33N 35°27' E 139°39'0 0.1
2014-Apr-21 05:33N 35°27' E 139°39'0 0.1
2014-Apr-21 04:33N 35°27' E 139°39'3 2.8
2014-Apr-21 03:33N 35°28' E 139°42'3 2.8
2014-Apr-21 02:33N 35°27' E 139°39'0 0.0
2014-Apr-21 01:33N 35°27' E 139°39'0 0.0
2014-Apr-21 00:33N 35°27' E 139°39'0 0.0
2014-Apr-20 12:28N 35°27' E 139°39'1 1.0
2014-Apr-20 11:33N 35°28' E 139°40'0 0.5
2014-Apr-20 10:33N 35°27' E 139°40'1 1.0
2014-Apr-20 09:33N 35°27' E 139°39'0 0.0
2014-Apr-20 08:33N 35°27' E 139°39'2 2.5
2014-Apr-20 07:33N 35°28' E 139°41'2 2.5
2014-Apr-20 06:33N 35°27' E 139°39'0 0.1
2014-Apr-20 05:33N 35°27' E 139°39'0 0.1
2014-Apr-20 04:33N 35°27' E 139°39'1 0.5
2014-Apr-20 03:33N 35°27' E 139°39'1 0.5
2014-Apr-20 02:33N 35°27' E 139°39'0 0.0
2014-Apr-20 01:33N 35°27' E 139°39'1 0.0
2014-Apr-19 12:34N 35°27' E 139°39'1 0.6
2014-Apr-19 11:33N 35°28' E 139°39'1 0.6
2014-Apr-19 10:33N 35°27' E 139°39'1 0.5
2014-Apr-19 09:33N 35°27' E 139°39'0 0.0
2014-Apr-19 08:33N 35°27' E 139°39'1 0.7
2014-Apr-19 07:33N 35°27' E 139°39'1 0.7
2014-Apr-19 06:33N 35°27' E 139°39'0 0.1
2014-Apr-19 05:33N 35°27' E 139°39'0 0.1
2014-Apr-19 04:33N 35°27' E 139°39'1 0.5
2014-Apr-19 03:33N 35°27' E 139°39'1 0.5
2014-Apr-19 02:33N 35°27' E 139°39'0 0.0
2014-Apr-19 01:33N 35°27' E 139°39'0 0.0
2014-Apr-19 00:33N 35°27' E 139°39'0 0.0
2014-Apr-18 12:33N 35°27' E 139°39'1 0.9
2014-Apr-18 11:34N 35°28' E 139°40'1 0.6
2014-Apr-18 10:33N 35°27' E 139°39'1 0.6
2014-Apr-18 09:33N 35°27' E 139°39'0 0.0
2014-Apr-18 08:33N 35°27' E 139°39'1 1.1
2014-Apr-18 07:34N 35°28' E 139°40'1 1.1
2014-Apr-18 06:33N 35°27' E 139°39'0 0.1
2014-Apr-18 05:33N 35°27' E 139°39'0 0.1
2014-Apr-18 04:33N 35°27' E 139°39'1 0.6
2014-Apr-18 03:33N 35°27' E 139°39'1 0.6
2014-Apr-18 02:33N 35°27' E 139°39'0 0.0
2014-Apr-18 01:33N 35°27' E 139°39'0 0.0
2014-Apr-18 00:33N 35°27' E 139°39'1 0.0
2014-Apr-17 12:33N 35°27' E 139°39'1 0.7
2014-Apr-17 11:33N 35°28' E 139°39'1 0.7
2014-Apr-17 10:33N 35°27' E 139°39'1 0.5
2014-Apr-17 09:33N 35°27' E 139°39'0 0.0
2014-Apr-17 08:33N 35°27' E 139°39'0 0.4
2014-Apr-17 07:33N 35°27' E 139°39'0 0.3
2014-Apr-17 06:33N 35°27' E 139°39'0 0.1
2014-Apr-17 05:33N 35°27' E 139°39'0 0.1
2014-Apr-17 04:33N 35°27' E 139°39'1 0.5
2014-Apr-17 03:34N 35°27' E 139°39'1 0.5
2014-Apr-17 02:33N 35°27' E 139°39'0 0.0
2014-Apr-17 01:33N 35°27' E 139°39'0 0.0
2014-Apr-17 00:33N 35°27' E 139°39'1 0.0
2014-Apr-16 11:19N 35°27' E 139°39'2 2.3
2014-Apr-16 10:33N 35°27' E 139°41'2 1.7
2014-Apr-16 09:31N 35°27' E 139°39'0 0.0
2014-Apr-16 08:33N 35°27' E 139°39'3 3.0
2014-Apr-16 07:33N 35°27' E 139°43'3 3.0
2014-Apr-16 06:33N 35°27' E 139°39'0 0.1
2014-Apr-16 05:33N 35°27' E 139°39'0 0.1
2014-Apr-16 04:34N 35°27' E 139°39'0 0.4
2014-Apr-16 03:34N 35°27' E 139°39'1 0.4
2014-Apr-16 02:07N 35°27' E 139°39'0 0.0
2014-Apr-16 01:05N 35°27' E 139°39'3 0.2
2014-Apr-15 09:34N 35°28' E 139°43'3 2.9
2014-Apr-15 08:34N 35°27' E 139°39'0 0.0
2014-Apr-15 07:34N 35°27' E 139°39'3 2.8
2014-Apr-15 06:34N 35°28' E 139°42'3 2.8
2014-Apr-15 05:34N 35°27' E 139°39'0 0.0
2014-Apr-15 03:34N 35°27' E 139°39'1 1.3
2014-Apr-15 02:34N 35°27' E 139°41'1 1.3
2014-Apr-15 01:34N 35°27' E 139°39'0 0.0
2014-Apr-15 00:34N 35°27' E 139°39'0 0.0
2014-Apr-14 23:34N 35°27' E 139°39'1 0.1
2014-Apr-14 10:33N 35°28' E 139°40'1 0.8
2014-Apr-14 09:34N 35°28' E 139°39'1 0.9
2014-Apr-14 08:33N 35°27' E 139°39'0 0.1
2014-Apr-14 07:34N 35°27' E 139°39'0 0.5
2014-Apr-14 06:34N 35°27' E 139°39'1 0.5
2014-Apr-14 05:33N 35°27' E 139°39'0 0.0
2014-Apr-13 12:25N 35°27' E 139°39'1 1.6
2014-Apr-13 11:34N 35°28' E 139°41'2 1.6
2014-Apr-13 10:34N 35°27' E 139°39'1 0.6
2014-Apr-13 09:34N 35°27' E 139°39'  

Dump ship's entire track history

sailing weather and tide predictions

Marine Rouge — JG5115 — position and weather